Duck Lake, Canada
Current Conditions -  °F | °C
As of 4:00 AM on Monday 22 Dec 2014 (Local Time) from CYPA Reporting Station
Overcast Overcast  
Wind Chill: 16°   Ceiling: 400
Heat Index: 23°   Visibility: 7mi
Dew Point: 21°   Wind: 6mph
Humidity: 93%   Direction: 70°ENE
Pressure: 29.63"   Gusts: NA
Location:  52.8°N, 106.22°W
Report Text: CYPA 221000Z 07005KT 7SM OVC004 M05/M06 A2963 RMK ST8 SLP061
Loading
Personal Weather Stations






























Interactive Weather Map New forecast layout! Learn more

10-Day Weather Forecast

Advertisements
Track Severe Weather on mobile